createdAt,value
2022-08-04T00:05:34.270Z,14.5
2022-08-04T00:15:34.270Z,14.5
2022-08-04T00:25:34.280Z,14.5
2022-08-04T00:30:34.279Z,14.4
2022-08-04T00:35:34.281Z,14.4
2022-08-04T00:45:35.722Z,14.4
2022-08-04T00:55:34.275Z,14.5
2022-08-04T01:00:34.292Z,14.5
2022-08-04T01:25:34.306Z,14.4
2022-08-04T01:35:47.929Z,14.3
2022-08-04T01:45:34.292Z,14.3
2022-08-04T01:50:34.302Z,14.4
2022-08-04T02:00:34.296Z,14.4
2022-08-04T02:06:03.250Z,14.4
2022-08-04T02:10:34.321Z,14.4
2022-08-04T02:15:34.317Z,14.3
2022-08-04T02:25:34.329Z,14.3
2022-08-04T02:30:34.328Z,14.3
2022-08-04T02:45:34.330Z,14.3
2022-08-04T02:55:34.319Z,14.2
2022-08-04T03:00:34.337Z,14.3
2022-08-04T03:10:34.340Z,14.4
2022-08-04T03:20:34.341Z,14.3
2022-08-04T03:25:34.344Z,14.5
2022-08-04T03:30:34.347Z,14.3
2022-08-04T03:40:34.351Z,14.4
2022-08-04T03:45:34.346Z,14.4
2022-08-04T04:05:40.349Z,14.3
2022-08-04T04:10:34.349Z,14.3
2022-08-04T04:20:34.356Z,14.3
2022-08-04T04:25:34.366Z,14.3
2022-08-04T04:30:34.358Z,14.4
2022-08-04T04:35:34.373Z,14.3
2022-08-04T04:45:34.370Z,14.3
2022-08-04T04:55:34.374Z,14.2
2022-08-04T05:00:34.369Z,14.3
2022-08-04T05:05:34.365Z,14.3
2022-08-04T05:25:34.399Z,14.4
2022-08-04T05:36:03.558Z,14.3
2022-08-04T05:45:39.338Z,14.4
2022-08-04T05:55:57.181Z,14.4
2022-08-04T06:00:41.383Z,14.2
2022-08-04T06:10:34.405Z,14.2
2022-08-04T06:20:34.776Z,14.1
2022-08-04T06:30:34.396Z,14.1
2022-08-04T06:40:34.830Z,14.2
2022-08-04T07:00:34.418Z,14.1
2022-08-04T07:05:34.419Z,14.2
2022-08-04T07:15:34.440Z,14.1
2022-08-04T07:26:00.794Z,14.2
2022-08-04T07:36:05.269Z,14.2
2022-08-04T07:40:34.421Z,14.2
2022-08-04T07:45:34.421Z,14.2
2022-08-04T07:50:34.430Z,14.2
2022-08-04T08:00:34.449Z,14.2
2022-08-04T08:20:34.430Z,14.2
2022-08-04T08:30:34.435Z,14.4
2022-08-04T08:40:40.845Z,14.3
2022-08-04T08:45:34.545Z,14.3
2022-08-04T08:55:34.422Z,14.2
2022-08-04T09:00:34.437Z,14.3
2022-08-04T09:05:34.439Z,14.2
2022-08-04T09:15:34.438Z,14.3
2022-08-04T09:25:34.442Z,14.5
2022-08-04T09:45:44.265Z,14.1
2022-08-04T09:50:34.443Z,14.1
2022-08-04T10:00:40.714Z,14.2
2022-08-04T10:05:34.443Z,14.2
2022-08-04T10:15:34.440Z,14.3
2022-08-04T10:26:03.047Z,14.3
2022-08-04T10:30:34.442Z,14.2
2022-08-04T10:35:34.449Z,14.3
2022-08-04T10:45:34.447Z,14.2
2022-08-04T10:56:07.718Z,14.2
2022-08-04T11:15:34.465Z,14.2
2022-08-04T11:20:36.124Z,14.3
2022-08-04T11:30:34.472Z,14.2
2022-08-04T11:40:34.463Z,14.3
2022-08-04T11:45:34.537Z,14.4
2022-08-04T11:56:07.012Z,14.4
2022-08-04T12:05:36.825Z,14.4
2022-08-04T12:10:37.854Z,14.5
2022-08-04T12:20:40.696Z,14.5
2022-08-04T12:30:54.178Z,14.5
2022-08-04T12:55:34.587Z,14.7
2022-08-04T13:05:34.505Z,14.6
2022-08-04T13:15:47.716Z,14.6
2022-08-04T13:26:45.099Z,14.6
2022-08-04T13:30:34.512Z,14.6
2022-08-04T13:35:55.217Z,14.5
2022-08-04T13:40:34.518Z,14.6
2022-08-04T13:50:34.521Z,14.5
2022-08-04T14:00:34.563Z,14.6
2022-08-04T14:25:35.572Z,14.6
2022-08-04T14:35:50.307Z,14.7
2022-08-04T14:45:34.514Z,14.6
2022-08-04T14:50:34.536Z,14.7
2022-08-04T15:00:34.517Z,14.6
2022-08-04T15:05:55.268Z,14.6
2022-08-04T15:10:34.543Z,14.7
2022-08-04T15:15:37.364Z,14.7
2022-08-04T15:25:34.540Z,14.6
2022-08-04T15:46:30.774Z,14.7
2022-08-04T15:55:34.706Z,14.6
2022-08-04T16:05:34.555Z,14.6
2022-08-04T16:15:34.554Z,14.7
2022-08-04T16:25:37.596Z,14.6
2022-08-04T16:30:34.574Z,14.7
2022-08-04T16:40:37.209Z,14.7
2022-08-04T16:45:34.571Z,14.7
2022-08-04T16:50:34.577Z,14.6
2022-08-04T17:00:34.578Z,14.8
2022-08-04T17:05:38.174Z,14.7
2022-08-04T17:10:34.561Z,14.6
2022-08-04T17:21:01.443Z,14.7
2022-08-04T17:30:34.580Z,14.7
2022-08-04T18:06:01.868Z,14.7
2022-08-04T19:10:34.700Z,14.8
2022-08-04T19:20:39.475Z,14.7
2022-08-04T19:30:34.624Z,14.8
2022-08-04T19:40:34.620Z,14.8
2022-08-04T19:50:34.629Z,14.9
2022-08-04T20:00:34.632Z,14.9
2022-08-04T20:05:54.071Z,14.8
2022-08-04T20:15:34.623Z,14.8
2022-08-04T20:20:34.637Z,14.8
2022-08-04T20:30:34.641Z,14.8
2022-08-04T20:40:34.643Z,14.8
2022-08-04T20:50:34.635Z,14.7
2022-08-04T20:55:54.815Z,14.8
2022-08-04T21:00:34.652Z,14.7
2022-08-04T21:10:34.656Z,14.8
2022-08-04T21:20:37.084Z,14.8
2022-08-04T21:35:38.372Z,14.8
2022-08-04T21:45:36.335Z,14.8
2022-08-04T21:56:06.560Z,14.9
2022-08-04T22:00:34.668Z,14.9
2022-08-04T22:10:34.674Z,14.9
2022-08-04T22:20:34.684Z,14.8
2022-08-04T22:30:36.454Z,14.9
2022-08-04T22:56:06.385Z,14.8
2022-08-04T23:00:34.771Z,14.8
2022-08-04T23:05:35.788Z,14.8
2022-08-04T23:15:34.681Z,14.7
2022-08-04T23:20:39.780Z,14.9
2022-08-04T23:30:34.678Z,14.8
2022-08-04T23:35:34.699Z,14.8
2022-08-04T23:46:04.361Z,14.7
2022-08-04T23:55:34.718Z,14.9
